Mason City Municipal Airport
KMCW : now visible

Airfield :











YOU CAN JOIN US ON...

 
LOGIN :

Register | Disclaimer

   EN    FR    IT 

 









Legend :    VFR   Marginal VFR   IFR   Intensive IFR   Very Intensive IFR
Visi :
Ceiling :
>= 8 km
>= 3000ft
5 to 8 km
1000 to 3000 ft
1500m to 5 km
500 to 1000 ft
800 to 1500m
200 to 500 ft
< 800m
< 200 ft
Symbols :   Thunderstorms  Fog  Heavy snow  Heavy precipitations  Wind > 20 kt






- Airport Elevation : 1213 ft


KMCW - Mason City Municipal

CURRENT METAR :
  • 251805Z AUTO 03008KT 3/4SM -SN BR SCT006 OVC014 M02/M03 A3031 RMK AO2 P0000 T10171033

EXPIRED METARs :
  • 251753Z AUTO 03009KT 3/4SM -SN BR SCT007 OVC016 M02/M03 A3031 RMK AO2 SLP275 P0001 60001 T10171028 11011 21028 58000
  • 251743Z AUTO 03010KT 3/4SM -SN BR FEW009 OVC017 M02/M03 A3032 RMK AO2 P0001 T10171033
  • 251731Z AUTO 02011KT 1SM -SN BR FEW010 OVC017 M02/M03 A3032 RMK AO2 P0000 T10221033
  • 251704Z AUTO 02011KT 3/4SM -SN BR VV018 M02/M04 A3032 RMK AO2 P0000 T10221039
  • 251653Z AUTO 02011KT 1SM -SN BR OVC022 M02/M04 A3032 RMK AO2 SNB29 SLP279 P0000 T10221039
  • 251642Z AUTO 03012KT 1 3/4SM -SN BKN028 OVC036 M02/M04 A3033 RMK AO2 SNB29 P0000 T10171044
  • 251553Z AUTO 03010KT 10SM FEW043 BKN055 OVC100 M01/M05 A3032 RMK AO2 SLP278 T10111050

TAF KMCW
Valid from the 25 at 18:00 until the 26 at 18:00 UTC


251737Z 2518/2618 02009KT 1SM -SN BR OVC015
FM252300 36009KT 5SM -SN BR OVC020
FM260600 35010KT P6SM VCSH BKN030
FM260900 34010KT P6SM OVC040
KZMP FIR / North America



MET'MAP, your aeronautical weather chart ! - Copyright ORBIFLY December 2007 - Disclaimer

ORBIFLY MET'MAP TEAM :

Programming & Development : Alexandra Zaïnal
Concept & original design : Baudouin d'Aumeries
Assistance for programming : Marc-Olivier Méhu
Technical & hardware support : Manuel Goepfert

Contact : metmap@orbifly.com




SOURCES & CREDITS :

   NOAA       Earth
Advisory